createdAt,value
2019-01-14T00:02:25.974Z,936.9
2019-01-14T00:05:31.932Z,936.9
2019-01-14T00:08:37.998Z,936.9
2019-01-14T00:11:43.866Z,937
2019-01-14T00:14:49.816Z,937
2019-01-14T00:17:55.786Z,936.9
2019-01-14T00:21:01.838Z,936.9
2019-01-14T00:24:07.705Z,936.9
2019-01-14T00:27:13.745Z,936.9
2019-01-14T00:30:19.706Z,936.9
2019-01-14T00:33:25.777Z,936.8
2019-01-14T00:36:31.727Z,936.8
2019-01-14T00:39:37.606Z,936.8
2019-01-14T00:42:43.544Z,936.8
2019-01-14T00:45:49.420Z,936.8
2019-01-14T00:48:55.360Z,936.8
2019-01-14T00:52:01.531Z,936.9
2019-01-14T00:55:07.478Z,936.9
2019-01-14T00:58:13.444Z,936.9
2019-01-14T01:01:19.328Z,936.9
2019-01-14T01:04:25.262Z,936.8
2019-01-14T01:07:31.320Z,936.8
2019-01-14T01:10:37.204Z,936.8
2019-01-14T01:13:43.163Z,936.9
2019-01-14T01:16:49.122Z,936.9
2019-01-14T01:19:54.985Z,936.8
2019-01-14T01:23:00.919Z,936.6
2019-01-14T01:26:06.792Z,936.6
2019-01-14T01:29:12.832Z,936.6
2019-01-14T01:32:18.896Z,936.5
2019-01-14T01:35:24.792Z,936.4
2019-01-14T01:38:30.812Z,936.3
2019-01-14T01:41:36.682Z,936.3
2019-01-14T01:44:42.667Z,936.3
2019-01-14T01:47:48.922Z,936.3
2019-01-14T01:50:54.857Z,936.2
2019-01-14T01:54:03.301Z,936.2
2019-01-14T01:57:09.231Z,936.2
2019-01-14T02:00:16.835Z,936.2
2019-01-14T02:03:22.706Z,936.1
2019-01-14T02:06:28.649Z,936.1
2019-01-14T02:09:41.365Z,936.1
2019-01-14T02:12:47.325Z,936
2019-01-14T02:15:53.382Z,935.9
2019-01-14T02:18:59.266Z,935.8
2019-01-14T02:22:05.305Z,935.8
2019-01-14T02:25:11.272Z,935.7
2019-01-14T02:28:17.222Z,935.7
2019-01-14T02:31:23.210Z,935.6
2019-01-14T02:34:29.141Z,935.5
2019-01-14T02:37:35.201Z,935.4
2019-01-14T02:40:41.078Z,935.4
2019-01-14T02:43:47.222Z,935.3
2019-01-14T02:46:53.119Z,935.2
2019-01-14T02:49:58.993Z,935.1
2019-01-14T02:53:05.200Z,935.1
2019-01-14T02:56:11.262Z,935.2
2019-01-14T02:59:17.228Z,935.1
2019-01-14T03:02:23.166Z,935.1
2019-01-14T03:05:29.147Z,935.1
2019-01-14T03:08:35.020Z,935.1
2019-01-14T03:11:40.959Z,935.1
2019-01-14T03:14:47.079Z,935.2
2019-01-14T03:17:52.938Z,935.1
2019-01-14T03:20:58.938Z,935.1
2019-01-14T03:24:04.817Z,935.1
2019-01-14T03:27:10.863Z,935
2019-01-14T03:30:16.882Z,934.9
2019-01-14T03:33:22.927Z,935
2019-01-14T03:36:28.862Z,934.9
2019-01-14T03:39:34.722Z,934.9
2019-01-14T03:42:40.680Z,934.8
2019-01-14T03:45:47.720Z,934.9
2019-01-14T03:48:53.659Z,935
2019-01-14T03:51:59.662Z,935.1
2019-01-14T03:55:05.608Z,935.2
2019-01-14T03:58:11.784Z,935.2
2019-01-14T04:01:17.846Z,935.1
2019-01-14T04:04:23.907Z,935.1
2019-01-14T04:07:29.867Z,935.2
2019-01-14T04:10:35.742Z,935.3
2019-01-14T04:13:41.733Z,935.3
2019-01-14T04:16:47.657Z,935.1
2019-01-14T04:19:53.707Z,935.2
2019-01-14T04:23:01.192Z,935
2019-01-14T04:26:07.470Z,935
2019-01-14T04:29:13.531Z,934.8
2019-01-14T04:32:19.506Z,934.8
2019-01-14T04:35:25.542Z,934.8
2019-01-14T04:38:31.447Z,934.8
2019-01-14T04:41:37.460Z,934.7
2019-01-14T04:44:43.421Z,934.6
2019-01-14T04:47:49.382Z,934.7
2019-01-14T04:50:57.921Z,934.5
2019-01-14T04:54:06.418Z,934.7
2019-01-14T04:57:12.399Z,934.7
2019-01-14T05:00:18.281Z,934.7
2019-01-14T05:03:24.379Z,934.6
2019-01-14T05:06:32.873Z,934.5
2019-01-14T05:09:41.545Z,934.6
2019-01-14T05:12:47.426Z,934.6
2019-01-14T05:15:53.494Z,934.4
2019-01-14T05:18:59.456Z,934.3
2019-01-14T05:22:05.404Z,934.3
2019-01-14T05:25:11.342Z,934.3
2019-01-14T05:28:17.454Z,934.4
2019-01-14T05:31:23.326Z,934.6
2019-01-14T05:34:29.423Z,934.6
2019-01-14T05:37:39.069Z,934.6
2019-01-14T05:40:45.029Z,934.6
2019-01-14T05:43:50.986Z,934.8
2019-01-14T05:46:57.049Z,934.8
2019-01-14T05:50:03.008Z,934.9
2019-01-14T05:53:08.888Z,934.9
2019-01-14T05:56:14.866Z,934.9
2019-01-14T05:59:20.791Z,934.8
2019-01-14T06:02:26.743Z,934.9
2019-01-14T06:05:32.702Z,935
2019-01-14T06:08:38.766Z,934.7
2019-01-14T06:11:44.653Z,934.7
2019-01-14T06:14:50.585Z,934.8
2019-01-14T06:17:59.615Z,934.8
2019-01-14T06:21:05.574Z,934.9
2019-01-14T06:24:11.535Z,934.9
2019-01-14T06:27:17.415Z,934.9
2019-01-14T06:30:23.350Z,934.7
2019-01-14T06:33:29.318Z,934.7
2019-01-14T06:36:35.578Z,934.4
2019-01-14T06:39:41.740Z,934.3
2019-01-14T06:42:48.109Z,934.2
2019-01-14T06:45:57.450Z,934.2
2019-01-14T06:49:03.509Z,934.3
2019-01-14T06:52:09.883Z,934.4
2019-01-14T06:55:16.247Z,934.5
2019-01-14T06:58:22.185Z,934.5
2019-01-14T07:01:28.438Z,934.7
2019-01-14T07:04:35.259Z,934.6
2019-01-14T07:07:41.357Z,934.8
2019-01-14T07:10:47.483Z,934.8
2019-01-14T07:13:53.775Z,934.8
2019-01-14T07:16:59.816Z,934.8
2019-01-14T07:20:06.279Z,934.8
2019-01-14T07:23:12.447Z,934.6
2019-01-14T07:26:18.613Z,934.6
2019-01-14T07:29:24.675Z,934.6
2019-01-14T07:32:30.665Z,934.6
2019-01-14T07:35:36.766Z,934.4
2019-01-14T07:38:42.682Z,934.5
2019-01-14T07:41:48.618Z,934.6
2019-01-14T07:44:54.829Z,934.6
2019-01-14T07:48:04.921Z,934.6
2019-01-14T07:51:11.059Z,934.6
2019-01-14T07:54:17.089Z,934.6
2019-01-14T07:57:23.387Z,934.6
2019-01-14T08:00:29.552Z,934.6
2019-01-14T08:03:35.670Z,934.6
2019-01-14T08:06:41.738Z,934.6
2019-01-14T08:09:47.819Z,934.7
2019-01-14T08:12:53.762Z,934.7
2019-01-14T08:15:59.755Z,934.7
2019-01-14T08:19:05.756Z,934.7
2019-01-14T08:22:11.988Z,934.7
2019-01-14T08:25:18.089Z,934.8
2019-01-14T08:28:25.168Z,934.9
2019-01-14T08:31:31.481Z,934.9
2019-01-14T08:34:37.426Z,934.8
2019-01-14T08:37:43.897Z,934.8
2019-01-14T08:40:50.346Z,934.9
2019-01-14T08:43:59.158Z,934.8
2019-01-14T08:47:06.175Z,934.8
2019-01-14T08:50:14.229Z,934.7
2019-01-14T08:53:23.048Z,934.7
2019-01-14T08:56:29.009Z,934.8
2019-01-14T08:59:35.063Z,934.9
2019-01-14T09:02:41.157Z,934.8
2019-01-14T09:05:48.992Z,934.8
2019-01-14T09:08:55.142Z,934.8
2019-01-14T09:12:01.159Z,934.9
2019-01-14T09:15:07.099Z,934.9
2019-01-14T09:18:13.179Z,934.8
2019-01-14T09:21:19.446Z,934.7
2019-01-14T09:24:26.042Z,934.8
2019-01-14T09:27:31.919Z,934.6
2019-01-14T09:30:37.920Z,934.6
2019-01-14T09:33:43.799Z,934.6
2019-01-14T09:36:50.763Z,934.5
2019-01-14T09:39:57.848Z,934.5
2019-01-14T09:43:03.908Z,934.4
2019-01-14T09:46:10.206Z,934.5
2019-01-14T09:49:16.147Z,934.6
2019-01-14T09:52:22.095Z,934.6
2019-01-14T09:55:30.211Z,934.6
2019-01-14T09:58:36.298Z,934.5
2019-01-14T10:01:42.231Z,934.5
2019-01-14T10:04:48.411Z,934.5
2019-01-14T10:07:54.276Z,934.4
2019-01-14T10:11:01.602Z,934.5
2019-01-14T10:14:07.494Z,934.4
2019-01-14T10:17:13.461Z,934.4
2019-01-14T10:20:19.541Z,934.3
2019-01-14T10:23:25.400Z,934.4
2019-01-14T10:26:31.352Z,934.3
2019-01-14T10:29:37.229Z,934.2
2019-01-14T10:32:43.564Z,934.2
2019-01-14T10:35:49.840Z,934.2
2019-01-14T10:38:55.894Z,934.2
2019-01-14T10:42:06.303Z,934.1
2019-01-14T10:45:12.319Z,934.1
2019-01-14T10:48:19.263Z,934.1
2019-01-14T10:51:25.363Z,934.1
2019-01-14T10:54:31.426Z,934.1
2019-01-14T10:57:37.398Z,934
2019-01-14T11:00:43.671Z,934
2019-01-14T11:03:51.885Z,934
2019-01-14T11:06:57.927Z,933.9
2019-01-14T11:10:04.196Z,933.9
2019-01-14T11:13:10.475Z,933.9
2019-01-14T11:16:16.473Z,933.8
2019-01-14T11:19:22.343Z,933.8
2019-01-14T11:22:28.492Z,933.9
2019-01-14T11:25:36.453Z,933.9
2019-01-14T11:28:42.514Z,933.9
2019-01-14T11:31:48.577Z,933.9
2019-01-14T11:34:55.817Z,933.9
2019-01-14T11:38:02.341Z,933.9
2019-01-14T11:41:08.247Z,933.9
2019-01-14T11:44:16.428Z,933.9
2019-01-14T11:47:22.527Z,933.9
2019-01-14T11:50:28.998Z,934
2019-01-14T11:53:35.026Z,933.9
2019-01-14T11:56:41.003Z,933.9
2019-01-14T11:59:47.091Z,933.9
2019-01-14T12:02:53.097Z,933.9
2019-01-14T12:05:59.203Z,933.8
2019-01-14T12:09:11.998Z,933.8
2019-01-14T12:12:18.513Z,933.8
2019-01-14T12:15:24.700Z,933.9
2019-01-14T12:18:31.188Z,933.9
2019-01-14T12:21:38.057Z,934
2019-01-14T12:24:45.234Z,933.9
2019-01-14T12:27:51.315Z,933.9
2019-01-14T12:30:58.397Z,933.8
2019-01-14T12:34:04.672Z,933.9
2019-01-14T12:37:10.788Z,933.8
2019-01-14T12:40:19.086Z,933.9
2019-01-14T12:43:29.652Z,933.9
2019-01-14T12:46:36.043Z,933.7
2019-01-14T12:49:44.245Z,933.7
2019-01-14T12:52:50.250Z,933.7
2019-01-14T12:55:56.314Z,933.8
2019-01-14T12:59:02.315Z,933.8
2019-01-14T13:02:09.327Z,933.8
2019-01-14T13:05:15.557Z,933.7
2019-01-14T13:08:21.638Z,933.8
2019-01-14T13:11:27.842Z,933.9
2019-01-14T13:14:33.859Z,933.8
2019-01-14T13:17:39.870Z,933.8
2019-01-14T13:20:47.190Z,933.9
2019-01-14T13:23:53.140Z,933.8
2019-01-14T13:26:59.182Z,933.9
2019-01-14T13:30:05.087Z,933.9
2019-01-14T13:33:11.143Z,934
2019-01-14T13:36:19.741Z,933.9
2019-01-14T13:39:33.716Z,933.8
2019-01-14T13:42:39.799Z,933.9
2019-01-14T13:45:45.931Z,933.8
2019-01-14T13:48:57.121Z,933.8
2019-01-14T13:52:05.518Z,933.8
2019-01-14T13:55:11.464Z,933.9
2019-01-14T13:58:18.038Z,933.9
2019-01-14T14:01:25.223Z,933.9
2019-01-14T14:04:31.449Z,934
2019-01-14T14:07:37.381Z,934
2019-01-14T14:10:43.559Z,933.8
2019-01-14T14:13:49.568Z,933.8
2019-01-14T14:16:55.451Z,933.8
2019-01-14T14:20:01.511Z,934
2019-01-14T14:23:07.368Z,933.9
2019-01-14T14:26:13.524Z,934
2019-01-14T14:29:19.421Z,934.1
2019-01-14T14:32:25.526Z,934
2019-01-14T14:35:31.831Z,934.1
2019-01-14T14:38:37.761Z,934.2
2019-01-14T14:41:43.738Z,934.3
2019-01-14T14:44:50.014Z,934.4
2019-01-14T14:47:55.968Z,934.3
2019-01-14T14:51:02.010Z,934.3
2019-01-14T14:54:08.178Z,934.4
2019-01-14T14:57:14.163Z,934.5
2019-01-14T15:00:20.017Z,934.5
2019-01-14T15:03:25.921Z,934.5
2019-01-14T15:06:32.143Z,934.5
2019-01-14T15:09:38.327Z,934.6
2019-01-14T15:12:44.344Z,934.6
2019-01-14T15:15:50.351Z,934.6
2019-01-14T15:18:57.435Z,934.6
2019-01-14T15:22:03.488Z,934.5
2019-01-14T15:25:09.367Z,934.5
2019-01-14T15:28:15.459Z,934.6
2019-01-14T15:31:21.346Z,934.7
2019-01-14T15:34:27.282Z,934.6
2019-01-14T15:37:35.590Z,934.7
2019-01-14T15:40:41.755Z,934.8
2019-01-14T15:43:47.693Z,934.8
2019-01-14T15:46:53.673Z,934.9
2019-01-14T15:49:59.555Z,934.9
2019-01-14T15:53:05.610Z,934.9
2019-01-14T15:56:11.485Z,934.9
2019-01-14T15:59:17.410Z,934.9
2019-01-14T16:02:23.369Z,934.9
2019-01-14T16:05:29.329Z,935
2019-01-14T16:08:35.238Z,934.9
2019-01-14T16:11:41.371Z,935
2019-01-14T16:14:47.308Z,935.1
2019-01-14T16:17:53.371Z,935.1
2019-01-14T16:20:59.331Z,935.1
2019-01-14T16:24:05.397Z,935.1
2019-01-14T16:27:11.307Z,935.1
2019-01-14T16:30:17.313Z,935.2
2019-01-14T16:33:23.192Z,935.2
2019-01-14T16:36:29.232Z,935.2
2019-01-14T16:39:35.311Z,935.3
2019-01-14T16:42:41.178Z,935.2
2019-01-14T16:45:47.376Z,935.3
2019-01-14T16:48:53.381Z,935.3
2019-01-14T16:51:59.439Z,935.5
2019-01-14T16:55:05.340Z,935.5
2019-01-14T16:58:11.256Z,935.3
2019-01-14T17:01:17.340Z,935.3
2019-01-14T17:04:23.482Z,935.3
2019-01-14T17:07:29.360Z,935.4
2019-01-14T17:10:35.401Z,935.4
2019-01-14T17:13:41.369Z,935.4
2019-01-14T17:16:47.326Z,935.3
2019-01-14T17:19:53.284Z,935.3
2019-01-14T17:22:59.167Z,935.2
2019-01-14T17:26:05.203Z,935.3
2019-01-14T17:29:11.104Z,935.4
2019-01-14T17:32:17.128Z,935.5
2019-01-14T17:35:22.998Z,935.4
2019-01-14T17:38:29.042Z,935.5
2019-01-14T17:41:35.000Z,935.5
2019-01-14T17:44:40.874Z,935.5
2019-01-14T17:47:48.349Z,935.4
2019-01-14T17:50:54.410Z,935.4
2019-01-14T17:54:00.371Z,935.5
2019-01-14T17:57:06.249Z,935.6
2019-01-14T18:00:12.187Z,935.6
2019-01-14T18:03:18.145Z,935.7
2019-01-14T18:06:24.105Z,935.7
2019-01-14T18:09:30.170Z,935.8
2019-01-14T18:12:36.047Z,935.7
2019-01-14T18:15:41.984Z,935.7
2019-01-14T18:18:48.209Z,935.7
2019-01-14T18:21:54.414Z,935.6
2019-01-14T18:25:00.477Z,935.7
2019-01-14T18:28:06.743Z,935.7
2019-01-14T18:31:12.716Z,935.8
2019-01-14T18:34:18.774Z,935.8
2019-01-14T18:37:24.741Z,935.8
2019-01-14T18:40:35.193Z,935.8
2019-01-14T18:43:41.150Z,935.9
2019-01-14T18:46:47.109Z,935.9
2019-01-14T18:49:52.995Z,936.1
2019-01-14T18:53:01.600Z,936
2019-01-14T18:56:07.651Z,936
2019-01-14T18:59:13.527Z,936.1
2019-01-14T19:02:19.472Z,936.1
2019-01-14T19:05:25.632Z,936.1
2019-01-14T19:08:31.593Z,936.2
2019-01-14T19:11:37.564Z,936.2
2019-01-14T19:14:43.433Z,936.2
2019-01-14T19:17:49.371Z,936.2
2019-01-14T19:20:55.342Z,936.2
2019-01-14T19:24:01.394Z,936.2
2019-01-14T19:27:07.271Z,936.2
2019-01-14T19:30:20.731Z,936.3
2019-01-14T19:33:26.643Z,936.2
2019-01-14T19:36:32.705Z,936.2
2019-01-14T19:39:38.766Z,936.2
2019-01-14T19:42:44.649Z,936.2
2019-01-14T19:45:51.204Z,936.2
2019-01-14T19:48:57.167Z,936.2
2019-01-14T19:52:03.121Z,936.2
2019-01-14T19:55:09.001Z,936.3
2019-01-14T19:58:16.470Z,936.3
2019-01-14T20:01:22.348Z,936.3
2019-01-14T20:04:28.287Z,936.4
2019-01-14T20:07:34.162Z,936.4
2019-01-14T20:10:40.302Z,936.4
2019-01-14T20:13:46.474Z,936.4
2019-01-14T20:16:52.436Z,936.4
2019-01-14T20:19:58.516Z,936.5
2019-01-14T20:23:04.455Z,936.5
2019-01-14T20:26:10.331Z,936.5
2019-01-14T20:29:16.270Z,936.6
2019-01-14T20:32:22.234Z,936.6
2019-01-14T20:35:28.189Z,936.6
2019-01-14T20:38:34.096Z,936.6
2019-01-14T20:41:40.107Z,936.6
2019-01-14T20:44:45.982Z,936.6
2019-01-14T20:47:51.927Z,936.6
2019-01-14T20:50:57.803Z,936.6
2019-01-14T20:54:03.742Z,936.6
2019-01-14T20:57:09.804Z,936.7
2019-01-14T21:00:15.765Z,936.7
2019-01-14T21:03:21.725Z,936.8
2019-01-14T21:06:27.602Z,936.8
2019-01-14T21:09:33.545Z,936.8
2019-01-14T21:12:39.416Z,936.9
2019-01-14T21:15:45.460Z,936.9
2019-01-14T21:18:51.420Z,936.9
2019-01-14T21:21:57.299Z,937
2019-01-14T21:25:03.339Z,937
2019-01-14T21:28:09.224Z,937
2019-01-14T21:31:15.154Z,937
2019-01-14T21:34:21.218Z,937
2019-01-14T21:37:27.178Z,937.1
2019-01-14T21:40:33.498Z,937
2019-01-14T21:43:39.403Z,937
2019-01-14T21:46:45.464Z,937.1
2019-01-14T21:49:51.424Z,937.1
2019-01-14T21:52:57.307Z,937.1
2019-01-14T21:56:03.240Z,937.3
2019-01-14T21:59:09.357Z,937.3
2019-01-14T22:02:15.344Z,937.3
2019-01-14T22:05:21.327Z,937.3
2019-01-14T22:08:27.491Z,937.2
2019-01-14T22:11:39.905Z,937.1
2019-01-14T22:14:45.860Z,937.2
2019-01-14T22:17:51.736Z,937.2
2019-01-14T22:20:57.676Z,937.2
2019-01-14T22:24:03.737Z,937.2
2019-01-14T22:27:09.619Z,937.3
2019-01-14T22:30:15.657Z,937.2
2019-01-14T22:33:21.772Z,937.2
2019-01-14T22:36:27.782Z,937.3
2019-01-14T22:39:33.668Z,937.2
2019-01-14T22:42:39.597Z,937.2
2019-01-14T22:45:45.568Z,937.2
2019-01-14T22:48:51.519Z,937.1
2019-01-14T22:51:57.396Z,937.2
2019-01-14T22:55:03.339Z,937.1
2019-01-14T22:58:09.402Z,937.1
2019-01-14T23:01:15.284Z,937.1
2019-01-14T23:04:21.313Z,937
2019-01-14T23:07:27.221Z,937
2019-01-14T23:10:33.138Z,936.9
2019-01-14T23:13:39.098Z,936.9
2019-01-14T23:16:45.158Z,937
2019-01-14T23:19:51.124Z,937
2019-01-14T23:22:57.071Z,937
2019-01-14T23:26:03.033Z,937
2019-01-14T23:29:08.990Z,937
2019-01-14T23:32:15.057Z,937.1
2019-01-14T23:35:20.941Z,937.3
2019-01-14T23:38:26.973Z,937.4
2019-01-14T23:41:32.850Z,937.4
2019-01-14T23:44:38.806Z,937.5
2019-01-14T23:47:47.846Z,937.5
2019-01-14T23:50:53.903Z,937.5
2019-01-14T23:53:59.843Z,937.5
2019-01-14T23:57:05.903Z,937.5
